Gas Snapper — V7TZ3 — position and weather

sailwx.info

Track history (hours):
 
Tides and Currents Weather Stations Pressure Air Temp Water Temp Dewpoint Dewpoint Depression Visibility Wind Speed Wind Dir Waves Ship Positions

Gas Snapper

Last reported at 2017-Mar-28 23:05 UTC. Time now 2017-Mar-30 10:58 UTC.
Position N 37°40' E 024°31'.

Length 174 m; draft 7 m.

Type: Ship (hazmat cat D). MMSI: 538003911.

Date/timePositionNaut miles runAvg speedWind from/ knotsBaromVisibWave heightAir tempDewpointWater temp
2017-Mar-28 23:05N 37°40' E 024°31'46813.1
2017-Mar-27 11:28N 36°24' E 014°53'1415.8
2017-Mar-27 10:33N 36°24' E 014°35'1616.0
2017-Mar-27 09:34N 36°25' E 014°15'1616.1
2017-Mar-27 08:33N 36°26' E 013°55'1616.2
2017-Mar-27 07:33N 36°31' E 013°36'1615.6
2017-Mar-27 06:33N 36°36' E 013°17'8215.6
2017-Mar-27 01:18N 37°07' E 011°42'11815.3
2017-Mar-26 17:33N 37°38' E 009°19'1715.5
2017-Mar-26 16:27N 37°40' E 008°57'1415.6
2017-Mar-26 15:33N 37°39' E 008°40'3715.6
2017-Mar-26 13:12N 37°39' E 007°53'10515.3
2017-Mar-26 06:21N 37°37' E 005°41'1215.1
2017-Mar-26 05:33N 37°35' E 005°26'4615.4
2017-Mar-26 02:33N 37°25' E 004°29'47316.1
2017-Mar-24 21:12N 36°00' W 005°11'1016.2
2017-Mar-24 20:34N 35°58' W 005°24'26113.7
2017-Mar-24 01:33N 38°13' W 010°04'1615.7
2017-Mar-24 00:33N 38°28' W 010°08'1615.9
2017-Mar-23 23:33N 38°44' W 010°12'1615.9
2017-Mar-23 22:33N 38°59' W 010°11'1616.1
2017-Mar-23 21:33N 39°16' W 010°12'  
2017-Mar-21 16:33N 49°49' W 003°23'1211.6
2017-Mar-21 15:33N 49°55' W 003°07'1111.2
2017-Mar-21 14:33N 49°60' W 002°52'3311.1
2017-Mar-21 11:33N 50°08' W 002°02'1211.7
2017-Mar-21 10:33N 50°12' W 001°44'1312.5
2017-Mar-21 09:33N 50°15' W 001°25'4113.6
2017-Mar-21 06:33N 50°25' W 000°23'1413.6
2017-Mar-21 05:33N 50°29' W 000°03'1312.9
2017-Mar-21 04:32N 50°33' E 000°17'1212.5
2017-Mar-21 03:33N 50°37' E 000°35'1212.4
2017-Mar-21 02:33N 50°44' E 000°51'1712.7
2017-Mar-21 01:14N 50°55' E 001°11'913.7
2017-Mar-21 00:33N 51°01' E 001°22'1414.2
2017-Mar-20 23:33N 51°10' E 001°39'1413.7
2017-Mar-20 22:33N 51°21' E 001°54'1110.7
2017-Mar-20 21:33N 51°23' E 002°11'1211.9
2017-Mar-20 20:33N 51°23' E 002°30'1110.5
2017-Mar-20 19:33N 51°22' E 002°47'1212.1
2017-Mar-20 18:33N 51°24' E 003°05'1212.2
2017-Mar-20 17:33N 51°25' E 003°25'9 8.9
2017-Mar-20 16:33N 51°26' E 003°39'1010.3
2017-Mar-20 15:33N 51°21' E 003°53'7 7.2
2017-Mar-20 14:33N 51°22' E 004°05'8 6.0
2017-Mar-20 13:16N 51°21' E 004°17'0 0.0
2017-Mar-20 12:18N 51°21' E 004°17'1 1.1
2017-Mar-20 11:31N 51°22' E 004°17'0 0.0
2017-Mar-20 08:24N 51°22' E 004°17'0 0.0
2017-Mar-20 07:33N 51°22' E 004°17'0 0.0
2017-Mar-20 06:12N 51°22' E 004°17'0 0.0
2017-Mar-20 05:24N 51°22' E 004°17'0 0.0
2017-Mar-20 04:28N 51°22' E 004°17'0 0.0
2017-Mar-20 03:32N 51°22' E 004°17'0 0.0
2017-Mar-20 02:30N 51°22' E 004°17'0 0.0
2017-Mar-20 01:18N 51°22' E 004°17'0 0.0
2017-Mar-20 00:30N 51°22' E 004°17'0 0.0
2017-Mar-19 23:30N 51°22' E 004°17'0 0.0
2017-Mar-19 22:24N 51°22' E 004°17'0 0.0
2017-Mar-19 20:30N 51°22' E 004°17'0 0.0
2017-Mar-19 19:33N 51°22' E 004°17'0 0.0
2017-Mar-19 18:30N 51°22' E 004°17'0 0.0
2017-Mar-19 17:27N 51°22' E 004°17'0 0.0
2017-Mar-19 16:24N 51°22' E 004°17'0 0.0
2017-Mar-19 15:33N 51°22' E 004°17'0 0.0
2017-Mar-19 14:33N 51°22' E 004°17'0 0.0
2017-Mar-19 13:30N 51°22' E 004°17'0 0.0
2017-Mar-19 12:24N 51°22' E 004°17'0 0.0
2017-Mar-19 11:33N 51°22' E 004°17'0 0.0
2017-Mar-19 10:30N 51°22' E 004°17'0 0.0
2017-Mar-19 09:32N 51°22' E 004°17'0 0.0
2017-Mar-19 08:30N 51°22' E 004°17'0 0.0
2017-Mar-19 07:31N 51°22' E 004°17'0 0.0
2017-Mar-19 06:30N 51°22' E 004°17'0 0.0
2017-Mar-19 05:30N 51°22' E 004°17'0 0.2
2017-Mar-19 04:33N 51°22' E 004°17'1 0.8
2017-Mar-19 03:33N 51°21' E 004°17'0 0.1
2017-Mar-19 02:33N 51°21' E 004°17'7 7.0
2017-Mar-19 01:33N 51°22' E 004°06'11 9.3
2017-Mar-19 00:20N 51°21' E 003°48'1010.0
2017-Mar-18 23:22N 51°26' E 003°35'  
Track history (hours):
 
Tides and Currents Weather Stations Pressure Air Temp Water Temp Dewpoint Dewpoint Depression Visibility Wind Speed Wind Dir Waves Ship Positions

Gas Snapper

Last reported at 2017-Mar-28 23:05 UTC. Time now 2017-Mar-30 10:58 UTC.
Position N 37°40' E 024°31'.

Length 174 m; draft 7 m.

Type: Ship (hazmat cat D). MMSI: 538003911.

Date/timePositionNaut miles runAvg speedWind from/ knotsBaromVisibWave heightAir tempDewpointWater temp
2017-Mar-28 23:05N 37°40' E 024°31'46813.1
2017-Mar-27 11:28N 36°24' E 014°53'1415.8
2017-Mar-27 10:33N 36°24' E 014°35'1616.0
2017-Mar-27 09:34N 36°25' E 014°15'1616.1
2017-Mar-27 08:33N 36°26' E 013°55'1616.2
2017-Mar-27 07:33N 36°31' E 013°36'1615.6
2017-Mar-27 06:33N 36°36' E 013°17'8215.6
2017-Mar-27 01:18N 37°07' E 011°42'11815.3
2017-Mar-26 17:33N 37°38' E 009°19'1715.5
2017-Mar-26 16:27N 37°40' E 008°57'1415.6
2017-Mar-26 15:33N 37°39' E 008°40'3715.6
2017-Mar-26 13:12N 37°39' E 007°53'10515.3
2017-Mar-26 06:21N 37°37' E 005°41'1215.1
2017-Mar-26 05:33N 37°35' E 005°26'4615.4
2017-Mar-26 02:33N 37°25' E 004°29'47316.1
2017-Mar-24 21:12N 36°00' W 005°11'1016.2
2017-Mar-24 20:34N 35°58' W 005°24'26113.7
2017-Mar-24 01:33N 38°13' W 010°04'1615.7
2017-Mar-24 00:33N 38°28' W 010°08'1615.9
2017-Mar-23 23:33N 38°44' W 010°12'1615.9
2017-Mar-23 22:33N 38°59' W 010°11'1616.1
2017-Mar-23 21:33N 39°16' W 010°12'  
2017-Mar-21 16:33N 49°49' W 003°23'1211.6
2017-Mar-21 15:33N 49°55' W 003°07'1111.2
2017-Mar-21 14:33N 49°60' W 002°52'3311.1
2017-Mar-21 11:33N 50°08' W 002°02'1211.7
2017-Mar-21 10:33N 50°12' W 001°44'1312.5
2017-Mar-21 09:33N 50°15' W 001°25'4113.6
2017-Mar-21 06:33N 50°25' W 000°23'1413.6
2017-Mar-21 05:33N 50°29' W 000°03'1312.9
2017-Mar-21 04:32N 50°33' E 000°17'1212.5
2017-Mar-21 03:33N 50°37' E 000°35'1212.4
2017-Mar-21 02:33N 50°44' E 000°51'1712.7
2017-Mar-21 01:14N 50°55' E 001°11'913.7
2017-Mar-21 00:33N 51°01' E 001°22'1414.2
2017-Mar-20 23:33N 51°10' E 001°39'1413.7
2017-Mar-20 22:33N 51°21' E 001°54'1110.7
2017-Mar-20 21:33N 51°23' E 002°11'1211.9
2017-Mar-20 20:33N 51°23' E 002°30'1110.5
2017-Mar-20 19:33N 51°22' E 002°47'1212.1
2017-Mar-20 18:33N 51°24' E 003°05'1212.2
2017-Mar-20 17:33N 51°25' E 003°25'9 8.9
2017-Mar-20 16:33N 51°26' E 003°39'1010.3
2017-Mar-20 15:33N 51°21' E 003°53'7 7.2
2017-Mar-20 14:33N 51°22' E 004°05'8 6.0
2017-Mar-20 13:16N 51°21' E 004°17'0 0.0
2017-Mar-20 12:18N 51°21' E 004°17'1 1.1
2017-Mar-20 11:31N 51°22' E 004°17'0 0.0
2017-Mar-20 08:24N 51°22' E 004°17'0 0.0
2017-Mar-20 07:33N 51°22' E 004°17'0 0.0
2017-Mar-20 06:12N 51°22' E 004°17'0 0.0
2017-Mar-20 05:24N 51°22' E 004°17'0 0.0
2017-Mar-20 04:28N 51°22' E 004°17'0 0.0
2017-Mar-20 03:32N 51°22' E 004°17'0 0.0
2017-Mar-20 02:30N 51°22' E 004°17'0 0.0
2017-Mar-20 01:18N 51°22' E 004°17'0 0.0
2017-Mar-20 00:30N 51°22' E 004°17'0 0.0
2017-Mar-19 23:30N 51°22' E 004°17'0 0.0
2017-Mar-19 22:24N 51°22' E 004°17'0 0.0
2017-Mar-19 20:30N 51°22' E 004°17'0 0.0
2017-Mar-19 19:33N 51°22' E 004°17'0 0.0
2017-Mar-19 18:30N 51°22' E 004°17'0 0.0
2017-Mar-19 17:27N 51°22' E 004°17'0 0.0
2017-Mar-19 16:24N 51°22' E 004°17'0 0.0
2017-Mar-19 15:33N 51°22' E 004°17'0 0.0
2017-Mar-19 14:33N 51°22' E 004°17'0 0.0
2017-Mar-19 13:30N 51°22' E 004°17'0 0.0
2017-Mar-19 12:24N 51°22' E 004°17'0 0.0
2017-Mar-19 11:33N 51°22' E 004°17'0 0.0
2017-Mar-19 10:30N 51°22' E 004°17'0 0.0
2017-Mar-19 09:32N 51°22' E 004°17'0 0.0
2017-Mar-19 08:30N 51°22' E 004°17'0 0.0
2017-Mar-19 07:31N 51°22' E 004°17'0 0.0
2017-Mar-19 06:30N 51°22' E 004°17'0 0.0
2017-Mar-19 05:30N 51°22' E 004°17'0 0.2
2017-Mar-19 04:33N 51°22' E 004°17'1 0.8
2017-Mar-19 03:33N 51°21' E 004°17'0 0.1
2017-Mar-19 02:33N 51°21' E 004°17'7 7.0
2017-Mar-19 01:33N 51°22' E 004°06'11 9.3
2017-Mar-19 00:20N 51°21' E 003°48'1010.0
2017-Mar-18 23:22N 51°26' E 003°35'  

Dump ship's entire track history